Decoded Metar for KANJ (SAULT STE MARIE in MI, USA) (IATA:ANJ) | Meteo·Mobile Aviation Weather
aviador You're here:

KANJ Decoded Metar

SAULT STE MARIE in MI, USA
Report Time2019-03-19 18:55:00
UTC Time2019-03-19 19:17:06
Flight Rules vfr VFR
Wind170° at 08 kt
W.Decomp.*RWY 14: 6.4 kt HW 4.8 kt RCW
W.Rank170° ranks 34
Current wind is above 170° avg. (5.4)
Visibility9999 m
Phenomena:N/A
Clouds:Broken 060 Hf
Expected CloudBase > 2,800 ft AGL from Temp-Dew spread
Ceiling6,000 ft
Temp05°C (ISA -9)
Dew Point-2°C (61% RH)
AAT-0.1°C
QNH1024 hPa
Density Alt-617 ft
Elevation715 ft
Report Wrong Elevation
Raw Report
KANJ 191855Z AUTO 17008KT 10SM BKN060 05/M02 A3023 RMK AO2 SLP246
T00501022=

Extra information for KANJ:More info

Metar Taf Metar & Taf Last 4 Metars F.Rules Stats Wind Profile Meteogram Temp Stats Airport Information Weather charts Add Link Nearby VenuesMetar ALERT Operation Metar Decoded Social comments

AIRNAV info for KANJ